Terminal Aerodrome Forecast
Issued by NWS Jackson, MS

Home | Current Version | Previous Version | Text Only | Print | Product List | Glossary On
Versions: 1 2 3 4 5 6 7 8 9 10 11 12 13 14 15
000
FTUS44 KMEG 160500
TAFTUP
TAF
KTUP 160522Z 1606/1706 VRB03KT P6SM SKC
     FM161500 13008KT P6SM SCT250
     FM162300 14004KT P6SM SCT250=

USA.gov is the U.S. government's official web portal to all federal, state and local government web resources and services.